Time;durP1;ratioP1;P1;durP2;ratioP2;P2;SDS_P1;SDS_P2;PMS_P1;PMS_P2;Temp;Humidity;BMP_temperature;BMP_pressure;BME280_temperature;BME280_humidity;BME280_pressure;Samples;Min_cycle;Max_cycle;Signal;HPM_P1;HPM_P2
2023/04/01 00:00:14;;;;;;;21.10;4.90;;;;;;;7.94;100.00;99023.56;5074596;28;20052;-75
2023/04/01 00:02:40;;;;;;;19.45;4.60;;;;;;;7.96;100.00;99024.38;5074611;28;20361;-75
2023/04/01 00:05:06;;;;;;;19.52;4.72;;;;;;;7.91;100.00;99028.00;5073015;28;20043;-75
2023/04/01 00:07:32;;;;;;;20.40;4.60;;;;;;;7.92;100.00;99024.47;5074482;28;20032;-75
2023/04/01 00:09:58;;;;;;;19.38;4.78;;;;;;;7.91;100.00;99031.50;5074178;28;20029;-75
2023/04/01 00:12:24;;;;;;;19.23;4.68;;;;;;;7.90;100.00;99031.50;5073124;28;20071;-75
2023/04/01 00:14:50;;;;;;;20.75;5.55;;;;;;;7.89;100.00;99028.00;5074275;28;20052;-75
2023/04/01 00:17:16;;;;;;;18.83;5.38;;;;;;;7.88;100.00;99031.53;5074225;28;20490;-75
2023/04/01 00:19:42;;;;;;;22.02;5.78;;;;;;;7.88;100.00;99036.81;5074151;28;20024;-75
2023/04/01 00:22:11;;;;;;;22.20;5.55;;;;;;;7.88;100.00;99028.91;5073886;28;20058;-75
2023/04/01 00:24:36;;;;;;;19.67;5.45;;;;;;;7.87;100.00;99034.19;5073864;28;20029;-75
2023/04/01 00:27:02;;;;;;;20.10;5.70;;;;;;;7.86;100.00;99038.56;5073975;28;20139;-75
2023/04/01 00:29:29;;;;;;;22.05;5.93;;;;;;;7.85;100.00;99040.34;5073551;28;20048;-75
2023/04/01 00:31:55;;;;;;;19.63;5.35;;;;;;;7.84;100.00;99038.59;5073735;28;20027;-76
2023/04/01 00:34:20;;;;;;;18.85;5.50;;;;;;;7.85;100.00;99044.75;5073881;28;20032;-75
2023/04/01 00:36:46;;;;;;;20.13;5.75;;;;;;;7.84;100.00;99041.22;5073783;28;20078;-74
2023/04/01 00:39:11;;;;;;;19.55;5.80;;;;;;;7.86;100.00;99049.09;5073551;28;20020;-75
2023/04/01 00:41:37;;;;;;;19.88;6.00;;;;;;;7.83;100.00;99038.59;5072465;28;20032;-77
2023/04/01 00:44:20;;;;;;;20.48;6.07;;;;;;;7.85;100.00;99057.91;5073489;28;20472;-75
2023/04/01 00:46:46;;;;;;;19.27;5.93;;;;;;;7.85;100.00;99050.00;5073357;28;20025;-74
2023/04/01 00:49:12;;;;;;;20.02;6.60;;;;;;;7.85;100.00;99039.47;5073420;28;20032;-75
2023/04/01 00:51:40;;;;;;;19.15;6.45;;;;;;;7.84;100.00;99045.63;5073538;28;20158;-74
2023/04/01 00:54:08;;;;;;;20.38;6.80;;;;;;;7.85;100.00;99058.75;5073675;28;20577;-75
2023/04/01 00:56:57;;;;;;;20.38;7.30;;;;;;;7.86;100.00;99054.34;5073270;28;20105;-74
2023/04/01 00:59:30;;;;;;;19.95;7.07;;;;;;;7.86;100.00;99070.13;5069693;28;20024;-75
2023/04/01 01:01:55;;;;;;;20.20;7.00;;;;;;;7.85;100.00;99065.78;5073142;28;20020;-74
2023/04/01 01:04:30;;;;;;;20.00;7.53;;;;;;;7.86;100.00;99062.25;5072177;28;20062;-76
2023/04/01 01:07:02;;;;;;;19.63;6.90;;;;;;;7.86;100.00;99067.50;5065997;28;20036;-75
2023/04/01 01:09:40;;;;;;;20.58;7.28;;;;;;;7.81;100.00;99072.81;5073022;28;20154;-74
2023/04/01 01:12:18;;;;;;;20.65;8.00;;;;;;;7.90;100.00;99071.84;5072914;28;20051;-74
2023/04/01 01:15:15;;;;;;;20.92;7.90;;;;;;;7.84;100.00;99071.94;5072997;28;20055;-74
2023/04/01 01:17:56;;;;;;;21.08;7.93;;;;;;;7.85;100.00;99081.56;5071940;28;20024;-74
2023/04/01 01:20:27;;;;;;;22.25;7.75;;;;;;;7.87;100.00;99076.28;5069354;28;20395;-74
2023/04/01 01:23:15;;;;;;;20.70;8.13;;;;;;;7.85;100.00;99081.56;5069485;28;20025;-74
2023/04/01 01:26:40;;;;;;;20.70;7.80;;;;;;;7.85;100.00;99076.31;5071875;28;20025;-75
2023/04/01 01:29:27;;;;;;;20.45;8.05;;;;;;;7.87;100.00;99077.16;5009317;28;20132;-74
2023/04/01 01:32:29;;;;;;;21.08;8.07;;;;;;;7.88;100.00;99075.38;5069530;28;20039;-74
2023/04/01 01:35:17;;;;;;;21.55;8.30;;;;;;;7.87;100.00;99095.56;5069533;28;20032;-74
2023/04/01 01:37:44;;;;;;;22.90;10.07;;;;;;;7.87;100.00;99076.28;5072639;28;20029;-74
2023/04/01 01:40:11;;;;;;;25.35;11.73;;;;;;;7.87;100.00;99078.91;5072954;28;20051;-74
2023/04/01 01:42:41;;;;;;;25.58;12.13;;;;;;;7.86;100.00;99085.91;5072598;28;20062;-74
2023/04/01 01:45:10;;;;;;;27.10;13.02;;;;;;;7.85;100.00;99089.47;5072541;28;20031;-74
2023/04/01 01:47:36;;;;;;;27.23;13.98;;;;;;;7.87;100.00;99095.56;5072716;28;20107;-74
2023/04/01 01:50:03;;;;;;;29.02;15.77;;;;;;;7.84;100.00;99090.34;5072638;28;20039;-74
2023/04/01 01:52:28;;;;;;;27.92;14.73;;;;;;;7.83;100.00;99107.00;5072413;28;20044;-73
2023/04/01 01:54:56;;;;;;;27.10;14.23;;;;;;;7.78;100.00;99101.81;5072775;28;20033;-74
2023/04/01 01:57:29;;;;;;;26.02;13.77;;;;;;;7.78;100.00;99100.94;5072478;28;20056;-75
2023/04/01 02:00:00;;;;;;;25.48;12.57;;;;;;;7.76;100.00;99100.97;5069146;28;20024;-75
2023/04/01 02:02:27;;;;;;;26.05;13.10;;;;;;;7.74;100.00;99108.00;5072423;28;20060;-76
2023/04/01 02:04:53;;;;;;;26.08;12.93;;;;;;;7.71;100.00;99108.03;5072581;28;20025;-74
2023/04/01 02:07:31;;;;;;;25.20;12.85;;;;;;;7.72;100.00;99106.25;5068322;28;20040;-74
2023/04/01 02:09:56;;;;;;;26.50;12.90;;;;;;;7.69;100.00;99107.19;5069919;28;20028;-74
2023/04/01 02:12:23;;;;;;;27.25;13.32;;;;;;;7.68;100.00;99123.84;5075423;28;20509;-74
2023/04/01 02:15:00;;;;;;;27.17;13.18;;;;;;;7.69;100.00;99122.97;5072600;28;20033;-74
2023/04/01 02:17:29;;;;;;;29.23;13.82;;;;;;;7.65;100.00;99123.88;5073237;28;20037;-74
2023/04/01 02:20:07;;;;;;;29.10;14.77;;;;;;;7.65;100.00;99127.38;5076316;28;20020;-74
2023/04/01 02:22:36;;;;;;;30.42;14.93;;;;;;;7.64;100.00;99125.63;5076349;28;20056;-74
2023/04/01 02:25:11;;;;;;;30.33;16.10;;;;;;;7.64;100.00;99130.03;5076362;28;20032;-74
2023/04/01 02:27:37;;;;;;;31.88;15.77;;;;;;;7.64;100.00;99115.09;5076190;28;20025;-74
2023/04/01 02:30:03;;;;;;;32.20;16.85;;;;;;;7.63;100.00;99121.28;5075910;28;20075;-74
2023/04/01 02:32:31;;;;;;;34.78;17.20;;;;;;;7.62;100.00;99116.91;5076238;28;20032;-74
2023/04/01 02:34:56;;;;;;;32.75;16.63;;;;;;;7.63;100.00;99131.78;5075935;28;20387;-74
2023/04/01 02:37:23;;;;;;;34.40;16.65;;;;;;;7.62;100.00;99119.53;5075842;28;20029;-74
2023/04/01 02:39:48;;;;;;;33.08;16.20;;;;;;;7.61;100.00;99141.44;5076100;28;20090;-76
2023/04/01 02:42:14;;;;;;;34.05;16.45;;;;;;;7.62;100.00;99124.78;5076040;28;20483;-74
2023/04/01 02:44:39;;;;;;;35.17;17.08;;;;;;;7.61;100.00;99130.06;5075619;28;20036;-77
2023/04/01 02:47:05;;;;;;;34.75;16.90;;;;;;;7.59;100.00;99137.97;5075955;28;20028;-74
2023/04/01 02:49:30;;;;;;;35.65;17.08;;;;;;;7.59;100.00;99132.72;5075681;28;20104;-75
2023/04/01 02:51:56;;;;;;;37.40;19.52;;;;;;;7.61;100.00;99125.66;5075715;28;20077;-74
2023/04/01 02:54:21;;;;;;;39.47;19.23;;;;;;;7.60;100.00;99137.09;5075816;28;20021;-74
2023/04/01 02:56:46;;;;;;;42.30;20.15;;;;;;;7.57;100.00;99131.88;5075501;28;20047;-75
2023/04/01 02:59:12;;;;;;;39.28;19.23;;;;;;;7.57;100.00;99142.38;5074515;28;20025;-75
2023/04/01 03:01:37;;;;;;;39.00;20.00;;;;;;;7.59;100.00;99142.38;5075461;28;20537;-74
2023/04/01 03:04:03;;;;;;;38.75;18.65;;;;;;;7.57;100.00;99146.75;5075334;28;20036;-75
2023/04/01 03:06:28;;;;;;;38.60;19.15;;;;;;;7.55;100.00;99149.41;5075620;28;20545;-74
2023/04/01 03:08:53;;;;;;;38.25;19.30;;;;;;;7.54;100.00;99142.38;5075340;28;20119;-74
2023/04/01 03:11:19;;;;;;;37.22;18.50;;;;;;;7.54;100.00;99146.78;5075246;28;20024;-74
2023/04/01 03:13:45;;;;;;;37.38;18.85;;;;;;;7.53;100.00;99148.56;5075501;28;20032;-76
2023/04/01 03:16:10;;;;;;;38.88;19.50;;;;;;;7.55;100.00;99154.66;5075215;28;20025;-74
2023/04/01 03:18:36;;;;;;;37.17;19.00;;;;;;;7.57;100.00;99158.16;5075195;28;20032;-72
2023/04/01 03:21:14;;;;;;;36.38;19.60;;;;;;;7.55;100.00;99159.06;5075231;28;20033;-72
2023/04/01 03:23:40;;;;;;;36.63;17.42;;;;;;;7.55;100.00;99157.28;5075187;28;20048;-74
2023/04/01 03:26:05;;;;;;;36.15;17.45;;;;;;;7.56;100.00;99164.31;5074985;28;20025;-72
2023/04/01 03:28:30;;;;;;;34.63;16.17;;;;;;;7.57;100.00;99165.16;5075117;28;20067;-72
2023/04/01 03:30:56;;;;;;;35.35;16.60;;;;;;;7.54;100.00;99160.81;5074982;28;20025;-72
2023/04/01 03:33:21;;;;;;;35.78;16.25;;;;;;;7.53;100.00;99171.34;5074900;28;20036;-77
2023/04/01 03:35:46;;;;;;;32.95;15.77;;;;;;;7.52;100.00;99175.72;5073809;28;20029;-72
2023/04/01 03:38:11;;;;;;;34.13;16.25;;;;;;;7.52;100.00;99162.59;5074743;28;20052;-72
2023/04/01 03:40:38;;;;;;;33.55;16.15;;;;;;;7.52;100.00;99173.09;5073457;28;20064;-72
2023/04/01 03:43:06;;;;;;;32.00;14.30;;;;;;;7.51;100.00;99184.50;5074966;28;20037;-72
2023/04/01 03:45:32;;;;;;;31.33;14.10;;;;;;;7.51;100.00;99168.72;5073428;28;20040;-72
2023/04/01 03:47:57;;;;;;;32.80;15.15;;;;;;;7.49;100.00;99171.38;5074650;28;20429;-72
2023/04/01 03:50:22;;;;;;;32.42;14.52;;;;;;;7.51;100.00;99181.88;5074749;28;20040;-73
2023/04/01 03:52:48;;;;;;;31.75;14.77;;;;;;;7.51;100.00;99179.25;5073323;28;20459;-72
2023/04/01 03:55:13;;;;;;;32.95;14.80;;;;;;;7.50;100.00;99185.41;5074478;28;20025;-73
2023/04/01 03:57:38;;;;;;;31.35;14.25;;;;;;;7.51;100.00;99189.75;5074896;28;20498;-73
2023/04/01 04:00:04;;;;;;;32.53;14.35;;;;;;;7.48;100.00;99189.78;5074502;28;20024;-73
2023/04/01 04:02:30;;;;;;;30.48;13.20;;;;;;;7.47;100.00;99183.66;5074256;28;20029;-73
2023/04/01 04:04:55;;;;;;;27.10;11.50;;;;;;;7.45;100.00;99189.81;5074531;28;20094;-74
2023/04/01 04:07:20;;;;;;;27.67;11.10;;;;;;;7.46;100.00;99191.56;5074319;28;20035;-73
2023/04/01 04:09:46;;;;;;;27.80;12.00;;;;;;;7.43;100.00;99195.09;5074404;28;20025;-73
2023/04/01 04:12:11;;;;;;;28.50;11.82;;;;;;;7.45;100.00;99197.72;5072882;28;20024;-73
2023/04/01 04:14:36;;;;;;;27.05;11.85;;;;;;;7.43;100.00;99202.13;5072908;28;20060;-72
2023/04/01 04:17:02;;;;;;;29.73;11.88;;;;;;;7.42;100.00;99205.63;5074181;28;20036;-73
2023/04/01 04:19:33;;;;;;;27.00;11.82;;;;;;;7.42;100.00;99200.38;5074075;28;20107;-72
2023/04/01 04:22:01;;;;;;;27.80;11.73;;;;;;;7.40;100.00;99207.41;5074059;28;20039;-72
2023/04/01 04:24:27;;;;;;;28.83;12.00;;;;;;;7.38;100.00;99203.91;5074167;28;20115;-73
2023/04/01 04:26:52;;;;;;;28.85;11.65;;;;;;;7.41;100.00;99209.13;5073871;28;20070;-72
2023/04/01 04:29:18;;;;;;;27.85;12.30;;;;;;;7.38;100.00;99215.28;5073607;28;20056;-72
2023/04/01 04:31:43;;;;;;;26.88;12.07;;;;;;;7.36;100.00;99216.22;5073999;28;20020;-72
2023/04/01 04:34:08;;;;;;;27.88;11.73;;;;;;;7.34;100.00;99218.84;5071888;28;20126;-72
2023/04/01 04:36:34;;;;;;;27.95;11.43;;;;;;;7.36;100.00;99230.22;5073574;28;20085;-72
2023/04/01 04:39:01;;;;;;;25.85;11.73;;;;;;;7.31;100.00;99225.00;5073939;28;20032;-73
2023/04/01 04:41:27;;;;;;;26.67;11.27;;;;;;;7.32;100.00;99220.59;5073511;28;20036;-73
2023/04/01 04:43:56;;;;;;;25.70;10.57;;;;;;;7.29;100.00;99226.75;5073445;28;20361;-72
2023/04/01 04:46:22;;;;;;;25.88;10.43;;;;;;;7.28;100.00;99232.91;5069662;28;20025;-72
2023/04/01 04:48:47;;;;;;;25.35;10.88;;;;;;;7.27;100.00;99228.53;5073448;28;20529;-72
2023/04/01 04:51:17;;;;;;;25.23;10.40;;;;;;;7.25;100.00;99243.47;5073381;28;20028;-72
2023/04/01 04:53:42;;;;;;;23.33;8.35;;;;;;;7.26;100.00;99241.69;5073498;28;20054;-72
2023/04/01 04:56:08;;;;;;;23.60;9.15;;;;;;;7.22;100.00;99240.81;5073352;28;20033;-72
2023/04/01 04:58:33;;;;;;;24.48;9.27;;;;;;;7.21;100.00;99252.25;5073140;28;20379;-72
2023/04/01 05:01:05;;;;;;;25.25;9.70;;;;;;;7.23;100.00;99255.72;5073367;28;20036;-72
2023/04/01 05:03:30;;;;;;;24.35;10.75;;;;;;;7.21;100.00;99256.59;5073190;28;20062;-73
2023/04/01 05:05:55;;;;;;;25.48;10.02;;;;;;;7.23;100.00;99253.09;5073039;28;20487;-73
2023/04/01 05:08:21;;;;;;;24.67;9.77;;;;;;;7.21;100.00;99253.97;5073391;28;20031;-72
2023/04/01 05:10:46;;;;;;;24.33;9.75;;;;;;;7.20;100.00;99257.50;5073041;28;20480;-73
2023/04/01 05:13:12;;;;;;;23.98;9.45;;;;;;;7.18;100.00;99260.16;5073090;28;20386;-72
2023/04/01 05:15:37;;;;;;;24.02;9.48;;;;;;;7.18;100.00;99273.28;5073104;28;20112;-72
2023/04/01 05:18:03;;;;;;;23.02;8.80;;;;;;;7.18;100.00;99264.50;5072856;28;20043;-72
2023/04/01 05:20:28;;;;;;;23.00;8.50;;;;;;;7.15;100.00;99265.44;5072946;28;20032;-71
2023/04/01 05:22:58;;;;;;;22.92;8.63;;;;;;;7.19;100.00;99276.78;5073054;28;20056;-72
2023/04/01 05:25:23;;;;;;;22.90;7.82;;;;;;;7.22;100.00;99289.91;5069093;28;20032;-72
2023/04/01 05:27:48;;;;;;;23.65;8.60;;;;;;;7.18;100.00;99275.03;5072808;28;20150;-72
2023/04/01 05:30:14;;;;;;;21.67;7.85;;;;;;;7.21;100.00;99285.50;5073088;28;20111;-73
2023/04/01 05:32:39;;;;;;;23.00;8.30;;;;;;;7.21;100.00;99289.03;5071532;28;20032;-70
2023/04/01 05:35:05;;;;;;;23.83;8.25;;;;;;;7.20;100.00;99296.94;5072634;28;20036;-71
2023/04/01 05:37:34;;;;;;;23.02;8.32;;;;;;;7.20;100.00;99295.16;5072766;28;20028;-71
2023/04/01 05:39:59;;;;;;;22.98;8.90;;;;;;;7.21;100.00;99302.19;5072703;28;20028;-71
2023/04/01 05:42:25;;;;;;;23.42;8.60;;;;;;;7.20;100.00;99304.81;5072624;28;20108;-70
2023/04/01 05:44:50;;;;;;;23.65;8.38;;;;;;;7.22;100.00;99309.16;5072193;28;20027;-70
2023/04/01 05:47:16;;;;;;;23.35;8.90;;;;;;;7.25;100.00;99317.06;5072539;28;20177;-71
2023/04/01 05:49:41;;;;;;;23.17;8.18;;;;;;;7.23;100.00;99315.31;5072771;28;20037;-72
2023/04/01 05:52:07;;;;;;;24.40;9.38;;;;;;;7.24;100.00;99315.28;5072562;28;20028;-72
2023/04/01 05:54:33;;;;;;;25.25;9.90;;;;;;;7.25;100.00;99321.41;5072596;28;20033;-71
2023/04/01 05:56:58;;;;;;;26.30;10.40;;;;;;;7.24;100.00;99311.81;5072700;28;20028;-70
2023/04/01 05:59:24;;;;;;;26.90;10.27;;;;;;;7.24;100.00;99328.44;5072419;28;20029;-71
2023/04/01 06:01:49;;;;;;;29.80;11.75;;;;;;;7.28;100.00;99335.44;5072353;28;20025;-70
2023/04/01 06:04:17;;;;;;;28.88;11.32;;;;;;;7.27;100.00;99332.81;5072585;28;20029;-70
2023/04/01 06:06:44;;;;;;;30.33;12.82;;;;;;;7.29;100.00;99341.53;5072368;28;20029;-70
2023/04/01 06:09:16;;;;;;;30.63;12.48;;;;;;;7.30;100.00;99348.56;5072555;28;20028;-70
2023/04/01 06:12:08;;;;;;;29.70;12.65;;;;;;;7.33;100.00;99349.41;5072473;28;20021;-71
2023/04/01 06:14:42;;;;;;;28.35;12.00;;;;;;;7.32;100.00;99370.44;5069970;28;20029;-71
2023/04/01 06:17:07;;;;;;;30.15;12.52;;;;;;;7.32;100.00;99363.44;5072526;28;20044;-71
2023/04/01 06:19:50;;;;;;;31.35;12.90;;;;;;;7.32;100.00;99373.97;5072203;28;20375;-72
2023/04/01 06:22:21;;;;;;;;;;;;;;;7.33;100.00;99367.81;5072638;28;20020;-72
2023/04/01 06:24:55;;;;;;;31.33;12.10;;;;;;;7.37;100.00;99371.31;5072152;28;19923;-73
2023/04/01 06:27:41;;;;;;;30.02;12.18;;;;;;;7.39;100.00;99385.31;5072180;28;20024;-72
2023/04/01 06:30:07;;;;;;;31.20;12.60;;;;;;;7.41;100.00;99380.94;5070111;28;20142;-71
2023/04/01 06:32:48;;;;;;;31.08;12.18;;;;;;;7.47;100.00;99386.13;5072300;28;20055;-72
2023/04/01 06:35:40;;;;;;;31.88;13.05;;;;;;;7.42;100.00;99385.28;5070964;28;20031;-72
2023/04/01 06:38:30;;;;;;;33.10;14.15;;;;;;;7.42;100.00;99379.16;5066419;28;20059;-72
2023/04/01 06:41:34;;;;;;;33.88;14.02;;;;;;;7.45;100.00;99393.13;5068740;28;20032;-71
2023/04/01 06:44:37;;;;;;;34.05;14.63;;;;;;;7.51;100.00;99400.13;5068997;28;20043;-72
2023/04/01 06:47:24;;;;;;;35.38;15.88;;;;;;;7.55;100.00;99395.75;5069353;28;20548;-71
2023/04/01 06:50:26;;;;;;;37.47;17.75;;;;;;;7.57;100.00;99394.84;5071977;28;20033;-71
2023/04/01 06:53:02;;;;;;;41.05;19.13;;;;;;;7.60;100.00;99405.34;5072744;28;20031;-72
2023/04/01 06:55:37;;;;;;;41.60;20.50;;;;;;;7.60;100.00;99401.81;5068824;28;20020;-71
2023/04/01 06:58:05;;;;;;;40.40;19.90;;;;;;;7.68;100.00;99414.03;5075511;28;20035;-71
2023/04/01 07:00:57;;;;;;;41.60;20.75;;;;;;;7.68;100.00;99419.31;5075519;28;20120;-71
2023/04/01 07:03:47;;;;;;;44.22;21.13;;;;;;;7.78;100.00;99425.38;5066767;28;20541;-71
2023/04/01 07:06:22;;;;;;;43.47;21.42;;;;;;;7.83;100.00;99430.59;5074272;28;20032;-71
2023/04/01 07:08:49;;;;;;;44.42;20.90;;;;;;;7.80;100.00;99420.09;5075323;28;20067;-71
2023/04/01 07:11:40;;;;;;;44.90;22.85;;;;;;;7.92;100.00;99430.56;5075533;28;20115;-71
2023/04/01 07:14:32;;;;;;;45.40;22.90;;;;;;;7.89;100.00;99433.19;5071839;28;20380;-70
2023/04/01 07:17:17;;;;;;;45.45;24.35;;;;;;;7.95;100.00;99429.63;5066132;28;20487;-70
2023/04/01 07:19:50;;;;;;;46.35;25.10;;;;;;;7.92;100.00;99438.47;5075167;28;20021;-70
2023/04/01 07:22:15;;;;;;;45.85;23.40;;;;;;;7.93;100.00;99440.19;5075320;28;20063;-70
2023/04/01 07:24:44;;;;;;;46.80;24.55;;;;;;;7.88;100.00;99442.00;5075035;28;20080;-71
2023/04/01 07:27:12;;;;;;;47.90;23.70;;;;;;;7.91;100.00;99454.25;5075046;28;20025;-70
2023/04/01 07:29:38;;;;;;;47.03;25.98;;;;;;;7.89;100.00;99448.97;5075088;28;20116;-70
2023/04/01 07:32:12;;;;;;;48.30;27.45;;;;;;;7.90;100.00;99461.25;5075130;28;20116;-69
2023/04/01 07:34:53;;;;;;;47.85;26.25;;;;;;;7.92;100.00;99463.88;5074923;28;20032;-70
2023/04/01 07:37:55;;;;;;;46.00;23.83;;;;;;;7.95;100.00;99459.47;5074792;28;20036;-70
2023/04/01 07:40:39;;;;;;;45.85;25.50;;;;;;;7.99;100.00;99469.09;5074818;28;20406;-71
2023/04/01 07:43:22;;;;;;;46.83;25.58;;;;;;;7.97;100.00;99483.16;5072813;28;20438;-70
2023/04/01 07:46:00;;;;;;;45.10;23.55;;;;;;;8.01;100.00;99469.97;5074679;28;20029;-69
2023/04/01 07:48:57;;;;;;;45.70;25.83;;;;;;;7.92;100.00;99483.19;5071280;28;20418;-72
2023/04/01 07:51:31;;;;;;;44.65;24.42;;;;;;;7.94;100.00;99477.91;5070960;28;20142;-70
2023/04/01 07:54:18;;;;;;;44.45;24.52;;;;;;;7.98;100.00;99493.66;5071148;28;20033;-70
2023/04/01 07:56:55;;;;;;;44.03;22.98;;;;;;;8.07;100.00;99497.09;5073285;28;20039;-71
2023/04/01 07:59:26;;;;;;;43.40;24.48;;;;;;;8.01;100.00;99495.41;5074355;28;20032;-70
2023/04/01 08:02:28;;;;;;;45.80;25.42;;;;;;;8.10;100.00;99500.59;5074317;28;20103;-70
2023/04/01 08:05:02;;;;;;;45.42;25.75;;;;;;;8.13;100.00;99504.97;5070464;28;20033;-71
2023/04/01 08:07:45;;;;;;;43.03;24.98;;;;;;;8.16;100.00;99512.84;5070260;28;20052;-69
2023/04/01 08:10:33;;;;;;;41.97;25.30;;;;;;;8.26;100.00;99509.25;5074245;28;20029;-70
2023/04/01 08:13:05;;;;;;;42.13;24.42;;;;;;;8.40;100.00;99508.28;5070729;28;20078;-69
2023/04/01 08:15:55;;;;;;;;;;;;;;;8.41;100.00;99526.69;5071733;28;20052;-70
2023/04/01 08:18:46;;;;;;;39.30;24.20;;;;;;;8.44;100.00;99524.06;5072925;28;20356;-72
2023/04/01 08:21:24;;;;;;;42.53;24.40;;;;;;;8.47;100.00;99533.72;5068608;28;20070;-75
2023/04/01 08:23:54;;;;;;;36.55;23.10;;;;;;;8.54;100.00;99522.25;5067009;28;20137;-72
2023/04/01 08:26:23;;;;;;;38.33;23.15;;;;;;;8.48;100.00;99538.97;5072213;28;20064;-79
2023/04/01 08:29:00;;;;;;;40.38;23.45;;;;;;;8.51;100.00;99532.81;5070430;28;20511;-74
2023/04/01 08:31:37;;;;;;;38.35;23.23;;;;;;;8.37;100.00;99539.03;5075181;28;20427;-69
2023/04/01 08:34:05;;;;;;;35.45;22.67;;;;;;;8.30;100.00;99539.06;5075972;28;20120;-69
2023/04/01 08:36:40;;;;;;;36.30;22.23;;;;;;;8.34;100.00;99540.78;5071425;28;20094;-70
2023/04/01 08:39:10;;;;;;;35.35;22.45;;;;;;;8.37;100.00;99541.66;5068086;28;20025;-70
2023/04/01 08:41:47;;;;;;;34.30;20.27;;;;;;;8.39;100.00;99544.28;5063253;28;20458;-68
2023/04/01 08:44:46;;;;;;;36.15;23.05;;;;;;;8.37;100.00;99546.94;5075608;28;20033;-70
2023/04/01 08:47:39;;;;;;;38.38;22.77;;;;;;;8.40;100.00;99550.41;5062419;28;20534;-70
2023/04/01 08:50:23;;;;;;;34.63;21.35;;;;;;;8.44;100.00;99555.66;5070400;28;20399;-70
2023/04/01 08:53:18;;;;;;;33.97;20.63;;;;;;;8.50;100.00;99562.66;5068876;28;20040;-69
2023/04/01 08:56:03;;;;;;;34.08;21.58;;;;;;;8.54;100.00;99559.13;5067598;28;20112;-69
2023/04/01 08:58:37;;;;;;;33.25;21.25;;;;;;;8.47;100.00;99566.19;5069009;28;20060;-69
2023/04/01 09:01:39;;;;;;;31.95;19.83;;;;;;;8.52;100.00;99566.19;5068832;28;20028;-70
2023/04/01 09:04:07;;;;;;;30.85;18.63;;;;;;;8.61;100.00;99581.03;5069097;28;20033;-71
2023/04/01 09:06:41;;;;;;;31.05;19.75;;;;;;;8.64;100.00;99575.75;5067412;28;20103;-67
2023/04/01 09:09:25;;;;;;;30.50;17.20;;;;;;;8.77;100.00;99571.25;5075196;28;20121;-68
2023/04/01 09:12:12;;;;;;;29.42;18.05;;;;;;;8.87;100.00;99588.72;5064645;28;20036;-68
2023/04/01 09:15:01;;;;;;;32.50;20.13;;;;;;;8.81;100.00;99587.00;5065161;28;20028;-68
2023/04/01 09:17:37;;;;;;;30.27;19.63;;;;;;;8.93;100.00;99587.78;5070765;28;20064;-68
2023/04/01 09:20:17;;;;;;;33.00;21.38;;;;;;;8.92;100.00;99591.31;5067152;28;20045;-67
2023/04/01 09:23:11;;;;;;;29.73;19.13;;;;;;;8.86;100.00;99597.50;5065085;28;20043;-69
2023/04/01 09:25:57;;;;;;;28.45;18.63;;;;;;;8.77;100.00;99597.59;5068981;28;20427;-68
2023/04/01 09:28:42;;;;;;;27.73;17.25;;;;;;;8.76;100.00;99596.69;5069035;28;20076;-68
2023/04/01 09:31:39;;;;;;;28.08;17.85;;;;;;;8.88;100.00;99601.00;5071471;28;20499;-69
2023/04/01 09:34:26;;;;;;;33.97;23.88;;;;;;;8.70;100.00;99607.28;5074771;28;20380;-69
2023/04/01 09:37:21;;;;;;;33.70;24.42;;;;;;;8.67;100.00;99613.47;5060365;28;20032;-69
2023/04/01 09:40:08;;;;;;;27.52;17.35;;;;;;;8.74;100.00;99606.41;5046267;28;20541;-67
2023/04/01 09:42:58;;;;;;;28.13;18.00;;;;;;;8.62;100.00;99612.63;5070395;28;20033;-69
2023/04/01 09:45:40;;;;;;;26.58;17.20;;;;;;;8.60;100.00;99626.69;5069978;28;20039;-69
2023/04/01 09:48:15;;;;;;;26.90;17.90;;;;;;;8.68;100.00;99620.47;5073349;28;20383;-72
2023/04/01 09:50:55;;;;;;;28.20;18.52;;;;;;;8.77;100.00;99621.31;5073373;28;20365;-70
2023/04/01 09:53:32;;;;;;;27.77;19.30;;;;;;;8.71;100.00;99620.47;5072312;28;20545;-72
2023/04/01 09:56:22;;;;;;;28.80;19.15;;;;;;;8.69;100.00;99630.16;5068854;28;20028;-71
2023/04/01 09:59:13;;;;;;;28.02;17.55;;;;;;;8.64;100.00;99634.56;5063766;28;20040;-73
2023/04/01 10:01:41;;;;;;;28.10;18.73;;;;;;;8.64;100.00;99634.56;5069194;28;20060;-74
2023/04/01 10:04:24;;;;;;;28.27;17.85;;;;;;;8.73;100.00;99639.75;5072011;28;20373;-73
2023/04/01 10:07:19;;;;;;;27.38;16.83;;;;;;;8.76;100.00;99645.91;5065429;28;20028;-70
2023/04/01 10:10:02;;;;;;;28.58;17.05;;;;;;;8.79;100.00;99649.38;5069772;28;20029;-70
2023/04/01 10:12:37;;;;;;;27.02;17.15;;;;;;;8.75;100.00;99644.16;5062175;28;20468;-70
2023/04/01 10:15:42;;;;;;;26.73;16.92;;;;;;;8.76;100.00;99651.16;5068974;28;20475;-70
2023/04/01 10:18:20;;;;;;;28.30;17.23;;;;;;;8.66;100.00;99648.59;5069856;28;20058;-70
2023/04/01 10:20:59;;;;;;;29.48;18.63;;;;;;;8.60;100.00;99659.16;5072424;28;20025;-70
2023/04/01 10:23:37;;;;;;;27.83;15.95;;;;;;;8.63;100.00;99658.28;5072238;28;20395;-70
2023/04/01 10:26:12;;;;;;;29.05;17.60;;;;;;;8.60;100.00;99658.31;5068981;28;20383;-70
2023/04/01 10:29:06;;;;;;;29.30;18.95;;;;;;;8.62;100.00;99667.97;5072032;28;20041;-70
2023/04/01 10:32:02;;;;;;;28.77;19.35;;;;;;;8.63;100.00;99669.69;5070548;28;20025;-70
2023/04/01 10:35:02;;;;;;;32.63;24.23;;;;;;;8.74;100.00;99669.63;5072382;28;20074;-70
2023/04/01 10:37:58;;;;;;;30.75;21.42;;;;;;;8.73;100.00;99676.63;5069875;28;20067;-70
2023/04/01 10:40:26;;;;;;;31.80;22.17;;;;;;;8.68;100.00;99659.13;5075258;28;20024;-70
2023/04/01 10:43:31;;;;;;;30.65;21.60;;;;;;;8.83;100.00;99674.81;5076078;28;20044;-71
2023/04/01 10:46:20;;;;;;;30.55;21.65;;;;;;;8.73;100.00;99668.72;5075683;28;20081;-70
2023/04/01 10:49:23;;;;;;;30.75;18.90;;;;;;;8.86;100.00;99677.44;5074332;28;20034;-71
2023/04/01 10:52:18;;;;;;;28.65;19.70;;;;;;;8.81;100.00;99673.97;5074587;28;20048;-70
2023/04/01 10:54:56;;;;;;;29.23;19.05;;;;;;;8.79;100.00;99681.00;5074021;28;20035;-71
2023/04/01 10:57:55;;;;;;;29.77;19.27;;;;;;;8.79;100.00;99686.28;5075638;28;20046;-74
2023/04/01 11:00:41;;;;;;;28.67;19.88;;;;;;;9.00;100.00;99687.88;5074799;28;20483;-70
2023/04/01 11:03:21;;;;;;;29.75;20.40;;;;;;;8.83;100.00;99682.72;5072762;28;20020;-71
2023/04/01 11:06:08;;;;;;;30.63;19.98;;;;;;;8.90;100.00;99688.84;5075490;28;20036;-70
2023/04/01 11:09:05;;;;;;;32.22;20.90;;;;;;;9.02;100.00;99695.78;5072396;28;20029;-71
2023/04/01 11:11:49;;;;;;;30.30;18.33;;;;;;;8.98;100.00;99708.09;5071699;28;20024;-71
2023/04/01 11:14:17;;;;;;;31.60;18.92;;;;;;;9.02;100.00;99695.78;5073838;28;20025;-70
2023/04/01 11:17:00;;;;;;;30.75;19.58;;;;;;;9.25;100.00;99706.16;5075438;28;20067;-71
2023/04/01 11:19:46;;;;;;;30.77;19.45;;;;;;;9.07;100.00;99708.06;5075492;28;20107;-70
2023/04/01 11:22:21;;;;;;;29.02;18.70;;;;;;;9.05;100.00;99709.81;5073566;28;20040;-70
2023/04/01 11:25:08;;;;;;;30.85;19.48;;;;;;;9.10;100.00;99706.25;5075125;28;20391;-71
2023/04/01 11:27:57;;;;;;;30.02;20.05;;;;;;;8.94;100.00;99706.41;5071868;28;20047;-70
2023/04/01 11:30:39;;;;;;;28.45;19.27;;;;;;;8.98;100.00;99702.81;5054913;28;20052;-70
2023/04/01 11:33:19;;;;;;;28.15;17.92;;;;;;;8.86;100.00;99708.19;5070417;28;20554;-71
2023/04/01 11:35:59;;;;;;;30.02;17.95;;;;;;;8.87;100.00;99721.38;5075259;28;20391;-70
2023/04/01 11:39:04;;;;;;;27.65;17.58;;;;;;;8.81;100.00;99720.50;5073452;28;20123;-70
2023/04/01 11:41:48;;;;;;;30.15;18.77;;;;;;;8.77;100.00;99735.47;5068935;28;20043;-70
2023/04/01 11:44:19;;;;;;;30.75;19.88;;;;;;;8.76;100.00;99733.72;5066413;28;20024;-71
2023/04/01 11:46:53;;;;;;;31.27;20.98;;;;;;;8.87;100.00;99734.53;5074331;28;20020;-71
2023/04/01 11:49:36;;;;;;;34.13;21.70;;;;;;;8.85;100.00;99745.97;5070268;28;20029;-72
2023/04/01 11:52:15;;;;;;;32.97;21.00;;;;;;;8.90;100.00;99734.50;5072337;28;20031;-71
2023/04/01 11:54:46;;;;;;;31.23;21.52;;;;;;;8.91;100.00;99743.28;5074393;28;20055;-72